Time;durP1;ratioP1;P1;durP2;ratioP2;P2;SDS_P1;SDS_P2;PMS_P1;PMS_P2;Temp;Humidity;BMP_temperature;BMP_pressure;BME280_temperature;BME280_humidity;BME280_pressure;Samples;Min_cycle;Max_cycle;Signal;HPM_P1;HPM_P2
2022/07/28 00:00:46;;;;;;;10.05;4.82;;;;;;;19.98;100.00;94296.34;5036643;28;20033;-87
2022/07/28 00:03:12;;;;;;;9.82;5.45;;;;;;;19.88;100.00;94302.06;5036328;28;20033;-86
2022/07/28 00:05:37;;;;;;;13.50;5.50;;;;;;;19.67;100.00;94299.44;5037371;28;20083;-87
2022/07/28 00:08:04;;;;;;;13.70;4.60;;;;;;;19.83;100.00;94303.03;5020255;28;20167;-87
2022/07/28 00:10:31;;;;;;;8.32;4.88;;;;;;;20.09;100.00;94301.25;5035378;28;20200;-87
2022/07/28 00:12:56;;;;;;;7.45;4.80;;;;;;;20.20;100.00;94295.16;5036476;28;20037;-87
2022/07/28 00:15:22;;;;;;;11.75;4.68;;;;;;;20.32;100.00;94296.28;5036243;28;20323;-87
2022/07/28 00:17:49;;;;;;;7.18;4.80;;;;;;;20.30;100.00;94295.84;5036469;28;20426;-87
2022/07/28 00:20:15;;;;;;;7.13;4.47;;;;;;;20.30;100.00;94296.63;5036280;28;20025;-87
2022/07/28 00:22:41;;;;;;;10.65;3.88;;;;;;;20.47;100.00;94300.94;5019544;28;20449;-87
2022/07/28 00:25:09;;;;;;;6.75;4.10;;;;;;;20.23;100.00;94298.25;5036069;28;20037;-87
2022/07/28 00:27:35;;;;;;;6.93;4.50;;;;;;;20.21;100.00;94290.63;5035812;28;20040;-87
2022/07/28 00:30:00;;;;;;;12.05;4.85;;;;;;;20.10;100.00;94297.47;5019867;28;20124;-87
2022/07/28 00:32:26;;;;;;;7.93;4.50;;;;;;;20.03;100.00;94300.66;5019944;28;20029;-87
2022/07/28 00:34:51;;;;;;;7.30;4.45;;;;;;;20.11;100.00;94301.69;5035735;28;20342;-87
2022/07/28 00:37:17;;;;;;;7.47;4.45;;;;;;;20.33;100.00;94305.81;5020029;28;20041;-87
2022/07/28 00:39:42;;;;;;;8.07;4.50;;;;;;;20.36;100.00;94301.72;5019314;28;20119;-87
2022/07/28 00:42:08;;;;;;;10.13;4.13;;;;;;;20.28;100.00;94304.16;5019610;28;20048;-88
2022/07/28 00:44:37;;;;;;;7.45;4.22;;;;;;;20.19;100.00;94300.81;5035698;28;20030;-87
2022/07/28 00:47:03;;;;;;;7.00;4.63;;;;;;;19.90;100.00;94303.25;5035940;28;20033;-87
2022/07/28 00:49:28;;;;;;;7.55;4.60;;;;;;;19.84;100.00;94296.59;5035874;28;20095;-87
2022/07/28 00:51:54;;;;;;;7.47;4.55;;;;;;;20.05;100.00;94293.13;5030136;28;20026;-88
2022/07/28 00:54:19;;;;;;;7.85;5.18;;;;;;;19.85;100.00;94295.50;5013938;28;20036;-88
2022/07/28 00:56:45;;;;;;;10.45;5.70;;;;;;;19.54;100.00;94295.94;5007810;28;20038;-88
2022/07/28 00:59:10;;;;;;;7.68;5.18;;;;;;;19.51;100.00;94300.03;5016250;28;20454;-87
2022/07/28 01:01:36;;;;;;;10.85;4.53;;;;;;;19.74;100.00;94297.00;5005360;28;20040;-87
2022/07/28 01:04:02;;;;;;;9.23;4.75;;;;;;;19.65;100.00;94291.78;5016191;28;20030;-87
2022/07/28 01:07:06;;;;;;;7.50;4.60;;;;;;;19.68;100.00;94296.44;4999759;28;20439;-87
2022/07/28 01:09:52;;;;;;;11.57;4.75;;;;;;;19.28;100.00;94295.06;5014046;28;20107;-88
2022/07/28 01:12:35;;;;;;;6.40;4.40;;;;;;;19.42;100.00;94294.00;5015356;28;20075;-87
2022/07/28 01:15:20;;;;;;;10.00;4.95;;;;;;;19.49;100.00;94295.03;5016060;28;20033;-87
2022/07/28 01:18:16;;;;;;;11.50;4.50;;;;;;;19.66;100.00;94306.63;5016712;28;20108;-88
2022/07/28 01:20:48;;;;;;;12.85;4.30;;;;;;;19.62;100.00;94301.19;5001790;28;20037;-87
2022/07/28 01:23:32;;;;;;;8.77;4.50;;;;;;;19.81;100.00;94299.13;4999911;28;20045;-88
2022/07/28 01:26:16;;;;;;;6.72;4.13;;;;;;;19.90;100.00;94299.84;5015974;28;20281;-87
2022/07/28 01:28:59;;;;;;;9.18;4.72;;;;;;;20.05;100.00;94295.78;5016549;28;20502;-87
2022/07/28 01:31:27;;;;;;;7.22;4.07;;;;;;;20.13;100.00;94294.94;5016692;28;20056;-88
2022/07/28 01:34:07;;;;;;;10.20;4.25;;;;;;;20.25;100.00;94290.75;5015488;28;20032;-87
2022/07/28 01:36:37;;;;;;;5.43;4.45;;;;;;;20.25;100.00;94288.09;4999322;28;20037;-87
2022/07/28 01:39:03;;;;;;;8.07;4.65;;;;;;;20.26;100.00;94292.31;4999434;28;20038;-87
2022/07/28 01:41:30;;;;;;;9.07;4.40;;;;;;;20.13;100.00;94294.94;5031988;28;20030;-88
2022/07/28 01:43:59;;;;;;;8.10;3.92;;;;;;;20.15;100.00;94298.03;5015448;28;20387;-87
2022/07/28 01:46:28;;;;;;;8.73;4.10;;;;;;;20.06;100.00;94294.69;5034739;28;20029;-87
2022/07/28 01:48:55;;;;;;;8.15;4.35;;;;;;;19.68;100.00;94291.13;5003139;28;20029;-87
2022/07/28 01:51:21;;;;;;;10.43;5.07;;;;;;;19.22;100.00;94293.69;5019170;28;20120;-87
2022/07/28 01:53:48;;;;;;;12.63;4.63;;;;;;;19.22;100.00;94291.03;5035637;28;20025;-87
2022/07/28 01:56:14;;;;;;;8.27;4.75;;;;;;;18.98;100.00;94291.63;5019689;28;20064;-87
2022/07/28 01:58:41;;;;;;;9.57;5.07;;;;;;;18.96;100.00;94291.97;5019569;28;20026;-87
2022/07/28 02:01:11;;;;;;;10.10;5.25;;;;;;;18.89;100.00;94302.31;5019625;28;20064;-87
2022/07/28 02:03:38;;;;;;;9.85;4.88;;;;;;;18.93;100.00;94295.25;5035114;28;20455;-87
2022/07/28 02:06:04;;;;;;;9.57;4.65;;;;;;;19.10;100.00;94291.75;5019378;28;20083;-87
2022/07/28 02:08:31;;;;;;;8.88;4.57;;;;;;;19.10;100.00;94293.63;5002783;28;20029;-87
2022/07/28 02:13:43;;;;;;;8.05;4.15;;;;;;;18.89;100.00;94295.13;5032979;28;20117;-87
2022/07/28 02:16:10;;;;;;;8.88;4.45;;;;;;;18.66;100.00;94299.94;5035257;28;20030;-87
2022/07/28 02:18:39;;;;;;;13.23;5.18;;;;;;;18.57;100.00;94294.66;5002926;28;20030;-87
2022/07/28 02:21:05;;;;;;;8.05;4.45;;;;;;;18.64;100.00;94302.13;5018930;28;20386;-87
2022/07/28 02:23:32;;;;;;;6.68;5.05;;;;;;;18.83;100.00;94295.63;5034987;28;20041;-87
2022/07/28 02:26:00;;;;;;;9.95;4.88;;;;;;;18.89;100.00;94289.03;5018393;28;20033;-87
2022/07/28 02:28:27;;;;;;;9.07;5.28;;;;;;;18.88;100.00;94287.47;5018267;28;20037;-87
2022/07/28 02:31:07;;;;;;;9.18;4.65;;;;;;;18.90;100.00;94287.94;5018539;28;20179;-87
2022/07/28 02:33:33;;;;;;;6.30;4.40;;;;;;;18.99;100.00;94278.06;5002558;28;20067;-87
2022/07/28 02:36:06;;;;;;;12.40;5.07;;;;;;;19.06;100.00;94277.56;5002289;28;20033;-87
2022/07/28 02:38:39;;;;;;;8.38;4.80;;;;;;;18.94;100.00;94292.28;5034962;28;20029;-88
2022/07/28 02:41:13;;;;;;;7.05;4.50;;;;;;;18.99;100.00;94301.16;5034837;28;20488;-88
2022/07/28 02:43:42;;;;;;;10.38;5.18;;;;;;;18.96;100.00;94296.50;5018140;28;20030;-88
2022/07/28 02:46:10;;;;;;;9.38;4.95;;;;;;;19.02;100.00;94300.56;5001816;28;20057;-87
2022/07/28 02:48:37;;;;;;;13.85;5.13;;;;;;;18.94;100.00;94307.44;5002274;28;20030;-88
2022/07/28 02:51:03;;;;;;;6.45;4.53;;;;;;;18.65;100.00;94301.06;5034655;28;20057;-88
2022/07/28 02:53:28;;;;;;;9.55;4.47;;;;;;;18.77;100.00;94305.66;5018196;28;20026;-89
2022/07/28 02:55:54;;;;;;;7.72;4.40;;;;;;;18.87;100.00;94301.84;5031122;28;20037;-89
2022/07/28 02:58:22;;;;;;;5.75;4.30;;;;;;;18.94;100.00;94300.25;5032105;28;20111;-89
2022/07/28 03:00:52;;;;;;;8.25;4.70;;;;;;;18.77;100.00;94303.00;5034388;28;20040;-89
2022/07/28 03:03:18;;;;;;;7.90;4.47;;;;;;;18.68;100.00;94304.91;5017716;28;20439;-89
2022/07/28 03:05:44;;;;;;;5.38;4.10;;;;;;;18.85;100.00;94304.06;5005158;28;20061;-89
2022/07/28 03:08:11;;;;;;;6.97;4.00;;;;;;;18.79;100.00;94292.84;5001569;28;20148;-89
2022/07/28 03:10:40;;;;;;;9.60;4.22;;;;;;;18.79;100.00;94296.28;5017958;28;20323;-88
2022/07/28 03:13:08;;;;;;;12.55;4.60;;;;;;;18.68;100.00;94295.09;5001616;28;20176;-89
2022/07/28 03:15:35;;;;;;;6.93;4.43;;;;;;;18.86;100.00;94295.75;5018803;28;20032;-89
2022/07/28 03:18:03;;;;;;;6.75;4.30;;;;;;;18.99;100.00;94301.97;5017586;28;20079;-89
2022/07/28 03:20:39;;;;;;;7.00;4.25;;;;;;;18.75;100.00;94298.00;5017553;28;20025;-89
2022/07/28 03:23:11;;;;;;;11.10;4.70;;;;;;;18.86;100.00;94297.66;5001332;28;20034;-89
2022/07/28 03:26:01;;;;;;;7.03;4.97;;;;;;;18.54;100.00;94297.19;5018682;28;20442;-89
2022/07/28 03:28:27;;;;;;;11.07;5.15;;;;;;;18.47;100.00;94301.09;5017658;28;20423;-89
2022/07/28 03:31:00;;;;;;;8.50;4.63;;;;;;;18.72;100.00;94303.97;5001311;28;20029;-89
2022/07/28 03:33:26;;;;;;;10.93;5.07;;;;;;;18.63;100.00;94298.72;5017665;28;20026;-89
2022/07/28 03:35:56;;;;;;;10.55;5.40;;;;;;;18.63;100.00;94305.88;5001178;28;20040;-89
2022/07/28 03:38:42;;;;;;;8.13;4.30;;;;;;;18.83;100.00;94301.72;5000926;28;20040;-90
2022/07/28 03:41:08;;;;;;;13.48;4.63;;;;;;;18.72;100.00;94303.97;5017056;28;20045;-89
2022/07/28 03:43:39;;;;;;;7.05;4.78;;;;;;;18.54;100.00;94300.63;5016988;28;20108;-89
2022/07/28 03:46:06;;;;;;;13.48;5.05;;;;;;;18.65;100.00;94298.41;5001716;28;20025;-89
2022/07/28 03:48:37;;;;;;;7.43;4.43;;;;;;;18.79;100.00;94298.94;5000871;28;20025;-89
2022/07/28 03:51:02;;;;;;;8.32;4.07;;;;;;;18.92;100.00;94296.34;5017127;28;20069;-89
2022/07/28 03:53:28;;;;;;;6.50;4.05;;;;;;;18.97;100.00;94296.19;5001051;28;20057;-89
2022/07/28 03:55:54;;;;;;;7.13;4.05;;;;;;;19.11;100.00;94295.19;5016927;28;20482;-89
2022/07/28 03:58:22;;;;;;;6.75;4.03;;;;;;;18.91;100.00;94302.75;5000797;28;20045;-89
2022/07/28 04:00:51;;;;;;;7.22;4.50;;;;;;;18.71;100.00;94299.75;5000718;28;20046;-89
2022/07/28 04:03:29;;;;;;;;;;;;;;;;;;;;;
2022/07/28 04:06:08;;;;;;;;;;;;;;;;;;;;;
2022/07/28 04:08:36;;;;;;;6.68;4.28;;;;;;;18.93;100.00;94303.22;5016125;28;20028;-89
2022/07/28 04:11:04;;;;;;;6.60;4.13;;;;;;;18.88;100.00;94301.53;5016712;28;20029;-89
2022/07/28 04:13:35;;;;;;;8.38;4.65;;;;;;;18.72;100.00;94309.28;5016836;28;20038;-90
2022/07/28 04:16:03;;;;;;;8.93;4.88;;;;;;;18.20;100.00;94311.03;5016569;28;20112;-90
2022/07/28 04:18:31;;;;;;;8.60;4.95;;;;;;;18.07;100.00;94312.00;5000956;28;20034;-90
2022/07/28 04:20:58;;;;;;;11.48;4.88;;;;;;;18.34;100.00;94310.84;5000676;28;20509;-91
2022/07/28 04:23:34;;;;;;;6.88;4.72;;;;;;;18.50;100.00;94316.38;5000497;28;20037;-91
2022/07/28 04:26:12;;;;;;;;;;;;;;;;;;;;;
2022/07/28 04:28:40;;;;;;;9.48;4.60;;;;;;;18.82;100.00;94316.09;5016653;28;20030;-90
2022/07/28 04:31:25;;;;;;;;;;;;;;;;;;;;;
2022/07/28 04:34:00;;;;;;;6.10;4.10;;;;;;;18.84;100.00;94315.78;5016606;28;20028;-88
2022/07/28 04:36:26;;;;;;;10.63;4.85;;;;;;;18.86;100.00;94317.00;5016464;28;20034;-90
2022/07/28 04:38:51;;;;;;;12.48;4.63;;;;;;;19.01;100.00;94325.53;4999874;28;20498;-89
2022/07/28 04:41:17;;;;;;;5.93;4.57;;;;;;;19.00;100.00;94321.31;5016397;28;20087;-90
2022/07/28 04:43:44;;;;;;;8.93;4.40;;;;;;;18.78;100.00;94321.25;5016058;28;20040;-90
2022/07/28 04:46:09;;;;;;;9.45;4.78;;;;;;;18.72;100.00;94330.50;5017100;28;20030;-90
2022/07/28 04:48:35;;;;;;;13.07;4.90;;;;;;;18.75;100.00;94329.09;5016023;28;20451;-91
2022/07/28 04:51:00;;;;;;;12.05;5.30;;;;;;;18.88;100.00;94328.09;4999798;28;20033;-90
2022/07/28 04:53:28;;;;;;;15.80;4.35;;;;;;;18.95;100.00;94327.59;5015902;28;20113;-90
2022/07/28 04:55:55;;;;;;;9.63;4.30;;;;;;;19.12;100.00;94331.25;5015966;28;20030;-89
2022/07/28 04:58:24;;;;;;;9.73;4.35;;;;;;;19.25;100.00;94340.06;5000274;28;20033;-90
2022/07/28 05:00:53;;;;;;;6.88;4.38;;;;;;;19.53;100.00;94335.03;5016155;28;20088;-90
2022/07/28 05:03:19;;;;;;;5.55;3.88;;;;;;;19.66;100.00;94337.75;4999973;28;20046;-90
2022/07/28 05:06:22;;;;;;;;;;;;;;;;;;;;;
2022/07/28 05:09:47;;;;;;;6.50;4.00;;;;;;;19.68;100.00;94344.28;5021158;28;20026;-90
2022/07/28 05:12:06;;;;;;;7.03;4.35;;;;;;;19.43;100.00;94338.06;5015570;28;20293;-89
2022/07/28 05:14:52;;;;;;;8.88;3.95;;;;;;;19.61;100.00;94336.81;5016945;28;20433;-88
2022/07/28 05:17:23;;;;;;;8.50;4.57;;;;;;;19.70;100.00;94330.66;5016113;28;20064;-89
2022/07/28 05:19:59;;;;;;;;;;;;;;;;;;;;;
2022/07/28 05:22:24;;;;;;;7.97;3.85;;;;;;;19.96;100.00;94327.78;5033800;28;20056;-89
2022/07/28 05:24:53;;;;;;;10.55;4.45;;;;;;;20.01;100.00;94335.59;5039465;28;20107;-89
2022/07/28 05:27:21;;;;;;;11.77;4.45;;;;;;;19.80;100.00;94330.28;5039784;28;20030;-88
2022/07/28 05:29:51;;;;;;;7.10;4.50;;;;;;;19.78;100.00;94327.94;5039438;28;20037;-88
2022/07/28 05:32:19;;;;;;;20.85;5.13;;;;;;;19.84;100.00;94336.50;5039507;28;20071;-88
2022/07/28 05:35:23;;;;;;;;;;;;;;;;;;;;;
2022/07/28 05:37:59;;;;;;;9.32;4.20;;;;;;;20.72;100.00;94338.22;5040403;28;20037;-89
2022/07/28 05:40:26;;;;;;;12.02;4.20;;;;;;;20.58;100.00;94345.75;5040181;28;20033;-89
2022/07/28 05:42:52;;;;;;;8.63;4.50;;;;;;;20.67;100.00;94343.78;5040355;28;20036;-89
2022/07/28 05:48:50;;;;;;;;;;;;;;;;;;;;;
2022/07/28 05:51:18;;;;;;;5.88;4.05;;;;;;;20.99;100.00;94346.69;5037240;28;20052;-91
2022/07/28 05:54:06;;;;;;;6.18;4.22;;;;;;;21.19;100.00;94355.66;5039914;28;20072;-91
2022/07/28 05:56:39;;;;;;;6.88;4.20;;;;;;;21.28;100.00;94347.53;5039990;28;20040;-90
2022/07/28 05:59:14;;;;;;;7.32;4.45;;;;;;;21.50;100.00;94350.81;5022767;28;20033;-91
2022/07/28 06:01:50;;;;;;;;;;;;;;;;;;;;;
2022/07/28 06:04:16;;;;;;;7.28;4.47;;;;;;;21.61;100.00;94353.81;5031238;28;20443;-90
2022/07/28 06:06:41;;;;;;;6.43;4.22;;;;;;;21.87;100.00;94352.59;5005469;28;20029;-91
2022/07/28 06:09:12;;;;;;;7.53;4.45;;;;;;;21.63;100.00;94348.91;5022329;28;20036;-91
2022/07/28 06:11:50;;;;;;;;;;;;;;;;;;;;;
2022/07/28 06:14:15;;;;;;;8.23;4.57;;;;;;;22.20;100.00;94348.13;5038545;28;20022;-91
2022/07/28 06:16:43;;;;;;;7.88;4.47;;;;;;;22.38;100.00;94346.69;5038686;28;20111;-90
2022/07/28 06:19:40;;;;;;;;;;;;;;;;;;;;;
2022/07/28 06:22:15;;;;;;;;;;;;;;;;;;;;;
2022/07/28 06:24:51;;;;;;;;;;;;;;;;;;;;;
2022/07/28 06:27:19;;;;;;;10.25;4.00;;;;;;;22.33;100.00;94356.84;5018567;28;20032;-91
2022/07/28 06:29:48;;;;;;;6.70;4.10;;;;;;;22.34;100.00;94355.72;5018776;28;20038;-90
2022/07/28 06:32:15;;;;;;;6.97;4.00;;;;;;;22.71;100.00;94344.81;5017961;28;20036;-91
2022/07/28 06:34:41;;;;;;;6.63;4.20;;;;;;;22.81;100.00;94355.00;5022083;28;20036;-90
2022/07/28 06:37:06;;;;;;;9.77;4.30;;;;;;;22.94;100.00;94362.91;5018326;28;20339;-91
2022/07/28 06:39:32;;;;;;;7.75;4.38;;;;;;;22.97;100.00;94362.22;5002268;28;20408;-90
2022/07/28 06:41:57;;;;;;;7.85;4.40;;;;;;;23.27;100.00;94375.13;5001819;28;20045;-90
2022/07/28 06:44:22;;;;;;;5.53;4.03;;;;;;;22.98;100.00;94367.22;5001764;28;20046;-90
2022/07/28 06:46:48;;;;;;;10.55;4.20;;;;;;;22.94;100.00;94362.91;5017938;28;20036;-90
2022/07/28 06:49:14;;;;;;;6.47;3.65;;;;;;;23.27;100.00;94375.91;5001612;28;20037;-90
2022/07/28 06:51:40;;;;;;;10.23;4.25;;;;;;;23.28;100.00;94372.09;5017996;28;20351;-89
2022/07/28 06:54:09;;;;;;;6.55;4.30;;;;;;;22.85;100.00;94373.78;5021266;28;20419;-90
2022/07/28 06:56:39;;;;;;;7.63;4.13;;;;;;;23.48;100.00;94379.41;5021160;28;20033;-90
2022/07/28 06:59:20;;;;;;;;;;;;;;;;;;;;;
2022/07/28 07:02:00;;;;;;;9.57;3.88;;;;;;;23.88;100.00;94374.84;5018192;28;20025;-91
2022/07/28 07:04:28;;;;;;;5.55;3.72;;;;;;;23.84;100.00;94380.09;5008735;28;20033;-90
2022/07/28 07:06:54;;;;;;;8.77;4.10;;;;;;;23.97;100.00;94380.75;5038987;28;20087;-91
2022/07/28 07:09:20;;;;;;;7.28;3.95;;;;;;;24.23;100.00;94365.94;5021399;28;20410;-90
2022/07/28 07:11:45;;;;;;;7.55;4.05;;;;;;;23.84;100.00;94370.19;5038590;28;20033;-91
2022/07/28 07:14:10;;;;;;;8.88;3.88;;;;;;;24.23;100.00;94363.28;5038431;28;20065;-91
2022/07/28 07:16:36;;;;;;;9.50;3.58;;;;;;;24.54;100.00;94364.97;5037333;28;20040;-91
2022/07/28 07:19:01;;;;;;;17.40;4.95;;;;;;;24.41;100.00;94364.38;5037263;28;20061;-92
2022/07/28 07:21:27;;;;;;;8.73;4.50;;;;;;;24.27;100.00;94369.50;5038551;28;20033;-91
2022/07/28 07:23:52;;;;;;;7.95;4.75;;;;;;;24.78;100.00;94375.72;5036902;28;20041;-91
2022/07/28 07:26:18;;;;;;;15.70;5.80;;;;;;;24.49;100.00;94364.50;5038359;28;20025;-91
2022/07/28 07:28:44;;;;;;;14.18;4.78;;;;;;;24.66;100.00;94363.25;5037530;28;20060;-91
2022/07/28 07:31:09;;;;;;;8.68;4.35;;;;;;;24.58;100.00;94357.00;5020779;28;20029;-90
2022/07/28 07:33:35;;;;;;;9.68;4.38;;;;;;;24.75;100.00;94357.66;5038394;28;20473;-93
2022/07/28 07:36:00;;;;;;;7.07;4.18;;;;;;;24.89;100.00;94357.91;5037091;28;20496;-91
2022/07/28 07:38:26;;;;;;;13.48;4.65;;;;;;;24.97;100.00;94367.59;5020587;28;20029;-91
2022/07/28 07:40:51;;;;;;;8.43;4.18;;;;;;;25.03;100.00;94365.38;5038073;28;20400;-92
2022/07/28 07:43:17;;;;;;;11.52;4.28;;;;;;;25.15;100.00;94361.72;5036032;28;20033;-91
2022/07/28 07:45:43;;;;;;;7.82;4.18;;;;;;;25.06;100.00;94366.56;5036792;28;20431;-90
2022/07/28 07:48:08;;;;;;;9.05;4.47;;;;;;;24.96;100.00;94365.28;5037920;28;20036;-92
2022/07/28 07:50:34;;;;;;;10.68;4.35;;;;;;;25.51;100.00;94364.91;5036763;28;20040;-91
2022/07/28 07:53:00;;;;;;;21.17;5.05;;;;;;;25.45;100.00;94370.94;5020185;28;20035;-91
2022/07/28 07:55:26;;;;;;;12.93;4.60;;;;;;;25.14;100.00;94370.91;5020382;28;20103;-89
2022/07/28 07:57:51;;;;;;;8.20;4.32;;;;;;;25.49;100.00;94375.25;5037967;28;20034;-89
2022/07/28 08:00:17;;;;;;;7.72;4.70;;;;;;;25.16;100.00;94373.22;5036429;28;20473;-90
2022/07/28 08:02:42;;;;;;;9.75;4.70;;;;;;;24.97;100.00;94372.19;5037404;28;20029;-89
2022/07/28 08:05:09;;;;;;;20.80;5.10;;;;;;;25.41;100.00;94373.59;5037687;28;20381;-88
2022/07/28 08:07:35;;;;;;;9.50;5.18;;;;;;;25.58;100.00;94374.22;5037783;28;20061;-88
2022/07/28 08:10:00;;;;;;;11.48;5.43;;;;;;;25.15;100.00;94366.31;5019686;28;20041;-88
2022/07/28 08:12:26;;;;;;;10.82;5.05;;;;;;;25.39;100.00;94376.63;5017655;28;20112;-89
2022/07/28 08:14:52;;;;;;;8.00;5.10;;;;;;;25.28;100.00;94375.69;5022165;28;20431;-89
2022/07/28 08:17:18;;;;;;;10.25;4.93;;;;;;;25.19;100.00;94375.19;5021346;28;20041;-87
2022/07/28 08:19:43;;;;;;;7.47;5.15;;;;;;;25.46;100.00;94375.16;5019293;28;20103;-89
2022/07/28 08:22:12;;;;;;;10.63;5.03;;;;;;;25.55;100.00;94379.16;5032343;28;20033;-88
2022/07/28 08:24:37;;;;;;;10.60;5.38;;;;;;;25.86;100.00;94381.06;5036423;28;20025;-87
2022/07/28 08:27:03;;;;;;;9.77;5.78;;;;;;;25.79;100.00;94384.44;5012486;28;20087;-87
2022/07/28 08:29:29;;;;;;;7.85;5.20;;;;;;;25.40;100.00;94383.53;5036037;28;20445;-88
2022/07/28 08:31:54;;;;;;;9.02;5.22;;;;;;;25.21;100.00;94386.31;5019893;28;20025;-87
2022/07/28 08:34:20;;;;;;;8.55;5.70;;;;;;;25.22;100.00;94377.91;5036021;28;20031;-90
2022/07/28 08:36:45;;;;;;;9.85;5.72;;;;;;;25.38;100.00;94385.00;5019445;28;20037;-88
2022/07/28 08:39:11;;;;;;;11.95;5.47;;;;;;;25.89;100.00;94388.38;5035263;28;20041;-89
2022/07/28 08:41:52;;;;;;;7.68;4.95;;;;;;;26.23;100.00;94378.44;5017444;28;20061;-89
2022/07/28 08:44:20;;;;;;;14.85;5.82;;;;;;;26.10;100.00;94383.25;5016081;28;20037;-89
2022/07/28 08:46:48;;;;;;;9.45;5.47;;;;;;;26.36;100.00;94380.88;4999981;28;20072;-88
2022/07/28 08:49:14;;;;;;;15.38;5.25;;;;;;;26.99;100.00;94385.66;5015889;28;20124;-91
2022/07/28 08:51:41;;;;;;;10.82;5.88;;;;;;;27.07;100.00;94382.66;5015545;28;20603;-90
2022/07/28 08:54:08;;;;;;;11.45;5.15;;;;;;;27.17;100.00;94389.25;5015314;28;20331;-89
2022/07/28 08:56:35;;;;;;;10.80;5.18;;;;;;;27.30;100.00;94391.63;4999776;28;20034;-89
2022/07/28 08:59:01;;;;;;;11.80;5.45;;;;;;;26.91;100.00;94393.66;5015915;28;20030;-89
2022/07/28 09:01:27;;;;;;;10.65;5.55;;;;;;;26.30;100.00;94393.06;5017114;28;20061;-87
2022/07/28 09:03:53;;;;;;;12.38;6.43;;;;;;;26.51;100.00;94397.88;5015640;28;20057;-88
2022/07/28 09:06:20;;;;;;;11.32;6.40;;;;;;;26.20;100.00;94400.66;5016193;28;20076;-88
2022/07/28 09:08:48;;;;;;;411.75;259.20;;;;;;;26.17;100.00;94393.28;5015560;28;20080;-87
2022/07/28 09:11:13;;;;;;;20.70;13.35;;;;;;;26.35;100.00;94398.88;5002887;28;20032;-89
2022/07/28 09:13:39;;;;;;;12.88;8.30;;;;;;;25.62;100.00;94399.16;5017324;28;20116;-88
2022/07/28 09:16:05;;;;;;;16.02;8.13;;;;;;;25.69;100.00;94393.91;5019760;28;20026;-89
2022/07/28 09:18:30;;;;;;;10.75;7.15;;;;;;;25.97;100.00;94398.06;5008570;28;20457;-89
2022/07/28 09:21:11;;;;;;;10.68;7.30;;;;;;;26.54;100.00;94399.84;5015812;28;20030;-89
2022/07/28 09:23:47;;;;;;;11.38;7.88;;;;;;;26.08;100.00;94400.88;5016415;28;20112;-87
2022/07/28 09:26:16;;;;;;;21.63;7.00;;;;;;;26.32;100.00;94388.88;5027762;28;20088;-87
2022/07/28 09:29:02;;;;;;;14.75;7.35;;;;;;;25.86;100.00;94391.81;4999673;28;20033;-88
2022/07/28 09:31:29;;;;;;;10.43;6.57;;;;;;;26.41;100.00;94393.19;4999475;28;20041;-88
2022/07/28 09:34:08;;;;;;;10.73;6.10;;;;;;;26.28;100.00;94392.66;5015217;28;20022;-87
2022/07/28 09:36:38;;;;;;;14.60;6.78;;;;;;;26.28;100.00;94385.41;5015922;28;20081;-89
2022/07/28 09:39:04;;;;;;;10.93;6.30;;;;;;;25.93;100.00;94386.50;5015893;28;20034;-88
2022/07/28 09:41:47;;;;;;;15.00;6.30;;;;;;;26.44;100.00;94392.44;5016710;28;20033;-88
2022/07/28 09:44:23;;;;;;;10.88;6.90;;;;;;;26.72;100.00;94391.94;5015212;28;20347;-87
2022/07/28 09:46:56;;;;;;;13.25;6.75;;;;;;;26.79;100.00;94389.31;5015810;28;20447;-87
2022/07/28 09:49:39;;;;;;;12.82;7.40;;;;;;;26.97;100.00;94380.66;5016733;28;20026;-88
2022/07/28 09:52:05;;;;;;;;;;;;;;;27.69;100.00;94387.63;5015776;28;20034;-88
2022/07/28 09:54:31;;;;;;;10.38;5.65;;;;;;;27.47;100.00;94393.66;5015475;28;19916;-87
2022/07/28 09:56:56;;;;;;;10.48;5.85;;;;;;;27.31;100.00;94387.78;4999364;28;20030;-88
2022/07/28 09:59:22;;;;;;;12.68;6.32;;;;;;;27.14;100.00;94384.63;5015511;28;20033;-88
2022/07/28 10:01:55;;;;;;;12.10;5.90;;;;;;;26.96;100.00;94382.56;5015618;28;20124;-89
2022/07/28 10:04:31;;;;;;;9.25;6.05;;;;;;;27.13;100.00;94383.06;5016260;28;20030;-89
2022/07/28 10:07:05;;;;;;;13.88;5.90;;;;;;;26.78;100.00;94382.41;5017335;28;20052;-89
2022/07/28 10:09:31;;;;;;;10.45;5.45;;;;;;;26.91;100.00;94384.84;5019281;28;20033;-89
2022/07/28 10:12:28;;;;;;;8.77;5.20;;;;;;;27.69;100.00;94391.13;5019144;28;20036;-89
2022/07/28 10:16:09;;;;;;;10.88;5.03;;;;;;;28.42;100.00;94381.38;5019112;28;20037;-89
2022/07/28 10:17:59;;;;;;;;;;;;;;;;;;;;;
2022/07/28 10:20:27;;;;;;;10.85;5.03;;;;;;;27.42;100.00;94387.84;5019010;28;20268;-89
2022/07/28 10:22:58;;;;;;;9.40;5.30;;;;;;;27.21;100.00;94384.66;5002570;28;20029;-88
2022/07/28 10:25:24;;;;;;;8.65;5.13;;;;;;;27.28;100.00;94377.78;5018670;28;20049;-89
2022/07/28 10:27:50;;;;;;;11.52;5.80;;;;;;;27.04;100.00;94380.72;5018754;28;20028;-90
2022/07/28 10:30:15;;;;;;;8.88;5.22;;;;;;;27.36;100.00;94379.38;5018385;28;20029;-89
2022/07/28 10:32:46;;;;;;;10.15;5.60;;;;;;;27.94;99.17;94380.44;5018726;28;20386;-89
2022/07/28 10:35:22;;;;;;;7.28;4.57;;;;;;;28.62;100.00;94375.59;5018591;28;20029;-90
2022/07/28 10:37:57;;;;;;;9.57;5.07;;;;;;;29.12;93.90;94372.16;5001772;28;20042;-88
2022/07/28 10:40:32;;;;;;;6.88;4.15;;;;;;;29.18;89.31;94373.31;5018748;28;20045;-89
2022/07/28 10:42:59;;;;;;;7.75;4.43;;;;;;;28.18;94.07;94378.22;5002360;28;20034;-90
2022/07/28 10:45:25;;;;;;;10.65;4.72;;;;;;;28.27;94.36;94375.19;5001912;28;20065;-90
2022/07/28 10:47:51;;;;;;;12.27;5.00;;;;;;;27.91;95.67;94391.19;5018058;28;20137;-88
2022/07/28 10:50:17;;;;;;;8.68;4.25;;;;;;;27.84;94.84;94380.41;5018257;28;20053;-88
2022/07/28 10:53:08;;;;;;;7.32;4.97;;;;;;;28.11;92.16;94377.41;5017894;28;20038;-89
2022/07/28 10:55:54;;;;;;;8.55;4.18;;;;;;;28.53;89.45;94373.28;5018189;28;20088;-90
2022/07/28 10:58:38;;;;;;;11.65;4.80;;;;;;;28.30;90.24;94373.66;5001728;28;20092;-91
2022/07/28 11:01:03;;;;;;;8.57;4.68;;;;;;;28.78;87.04;94364.47;5019065;28;20036;-90
2022/07/28 11:03:43;;;;;;;7.68;4.90;;;;;;;28.81;86.14;94358.31;5017411;28;20026;-89
2022/07/28 11:06:38;;;;;;;7.95;4.43;;;;;;;29.04;82.24;94365.25;5001499;28;20079;-89
2022/07/28 11:09:15;;;;;;;9.68;4.93;;;;;;;28.83;85.17;94364.09;5017970;28;20343;-90
2022/07/28 11:11:44;;;;;;;11.52;4.97;;;;;;;29.25;87.01;94355.59;5017778;28;20431;-89
2022/07/28 11:14:24;;;;;;;10.52;4.30;;;;;;;29.34;86.02;94364.06;5017333;28;20036;-88
2022/07/28 11:17:10;;;;;;;8.48;4.85;;;;;;;28.26;83.72;94365.53;5017464;28;20489;-90
2022/07/28 11:19:44;;;;;;;10.50;5.00;;;;;;;29.21;85.93;94355.59;5017924;28;20170;-90
2022/07/28 11:22:20;;;;;;;8.13;5.00;;;;;;;28.97;87.15;94344.47;5018614;28;20120;-88
2022/07/28 11:25:03;;;;;;;8.75;4.63;;;;;;;29.09;84.52;94340.59;5017393;28;20136;-90
2022/07/28 11:30:39;;;;;;;9.65;5.35;;;;;;;28.69;84.02;94350.59;5018678;28;20164;-90
2022/07/28 11:33:06;;;;;;;10.60;4.32;;;;;;;29.40;81.10;94348.25;5017398;28;20442;-89
2022/07/28 11:35:38;;;;;;;6.75;4.32;;;;;;;30.05;77.94;94331.81;5001560;28;20116;-90
2022/07/28 11:38:03;;;;;;;8.80;4.05;;;;;;;30.10;78.08;94336.81;5018234;28;20042;-92
2022/07/28 11:40:34;;;;;;;10.90;4.50;;;;;;;30.29;74.90;94338.25;5017226;28;20117;-90
2022/07/28 11:43:24;;;;;;;9.68;4.40;;;;;;;29.19;77.88;94339.81;5018226;28;20064;-90
2022/07/28 11:45:50;;;;;;;11.70;4.32;;;;;;;29.77;77.52;94341.59;5018104;28;20033;-91
2022/07/28 11:48:17;;;;;;;9.18;4.65;;;;;;;29.34;75.13;94334.38;5017028;28;20469;-90
2022/07/28 11:51:11;;;;;;;5.47;4.13;;;;;;;29.66;75.19;94325.44;5016996;28;20028;-90
2022/07/28 11:53:39;;;;;;;6.07;4.82;;;;;;;29.27;77.18;94327.06;5016951;28;20018;-91
2022/07/28 11:56:10;;;;;;;7.10;4.43;;;;;;;29.53;79.67;94324.31;5017367;28;20033;-91
2022/07/28 11:58:36;;;;;;;5.97;4.13;;;;;;;29.96;73.90;94334.94;5001519;28;20030;-88
2022/07/28 12:01:13;;;;;;;8.18;3.97;;;;;;;30.45;71.24;94328.88;5016980;28;20344;-91
2022/07/28 12:03:41;;;;;;;8.98;4.68;;;;;;;30.64;68.69;94326.84;5016883;28;20037;-90
2022/07/28 12:06:08;;;;;;;7.03;4.53;;;;;;;30.80;66.33;94318.97;5000772;28;20022;-89